sensor_id;sensor_type;location;lat;lon;timestamp;pressure;altitude;pressure_sealevel;temperature;humidity
17505;BME280;8870;50.950;11.762;2023-05-23T00:01:01;98127.44;;;16.39;100.00
17505;BME280;8870;50.950;11.762;2023-05-23T00:06:21;98130.38;;;16.38;100.00
17505;BME280;8870;50.950;11.762;2023-05-23T00:11:55;98144.16;;;16.36;100.00
17505;BME280;8870;50.950;11.762;2023-05-23T00:17:13;98135.59;;;16.32;100.00
17505;BME280;8870;50.950;11.762;2023-05-23T00:22:46;98121.34;;;16.30;100.00
17505;BME280;8870;50.950;11.762;2023-05-23T00:28:14;98115.31;;;16.28;100.00
17505;BME280;8870;50.950;11.762;2023-05-23T00:33:46;98114.69;;;16.26;100.00
17505;BME280;8870;50.950;11.762;2023-05-23T00:39:04;98111.31;;;16.24;100.00
17505;BME280;8870;50.950;11.762;2023-05-23T00:44:43;98115.50;;;16.20;100.00
17505;BME280;8870;50.950;11.762;2023-05-23T00:50:03;98104.63;;;16.20;100.00
17505;BME280;8870;50.950;11.762;2023-05-23T00:55:35;98106.28;;;16.21;100.00
17505;BME280;8870;50.950;11.762;2023-05-23T01:00:56;98107.97;;;16.22;100.00
17505;BME280;8870;50.950;11.762;2023-05-23T01:06:27;98113.41;;;16.22;100.00
17505;BME280;8870;50.950;11.762;2023-05-23T01:11:55;98121.56;;;16.22;100.00
17505;BME280;8870;50.950;11.762;2023-05-23T01:17:33;98118.03;;;16.22;100.00
17505;BME280;8870;50.950;11.762;2023-05-23T01:29:12;98133.06;;;16.24;100.00
17505;BME280;8870;50.950;11.762;2023-05-23T01:34:46;98124.69;;;16.26;100.00
17505;BME280;8870;50.950;11.762;2023-05-23T01:40:05;98127.63;;;16.24;100.00
17505;BME280;8870;50.950;11.762;2023-05-23T01:45:40;98136.59;;;16.18;100.00
17505;BME280;8870;50.950;11.762;2023-05-23T01:51:00;98127.84;;;16.16;100.00
17505;BME280;8870;50.950;11.762;2023-05-23T01:56:32;98144.28;;;16.08;100.00
17505;BME280;8870;50.950;11.762;2023-05-23T02:01:53;98140.91;;;15.92;100.00
17505;BME280;8870;50.950;11.762;2023-05-23T02:07:24;98149.63;;;15.81;100.00
17505;BME280;8870;50.950;11.762;2023-05-23T02:12:43;98153.50;;;15.71;100.00
17505;BME280;8870;50.950;11.762;2023-05-23T02:18:17;98164.16;;;15.66;100.00
17505;BME280;8870;50.950;11.762;2023-05-23T02:23:35;98171.88;;;15.63;100.00
17505;BME280;8870;50.950;11.762;2023-05-23T02:29:06;98169.34;;;15.61;100.00
17505;BME280;8870;50.950;11.762;2023-05-23T02:34:40;98167.44;;;15.55;100.00
17505;BME280;8870;50.950;11.762;2023-05-23T02:40:05;98157.78;;;15.46;100.00
17505;BME280;8870;50.950;11.762;2023-05-23T02:45:36;98168.56;;;15.32;100.00
17505;BME280;8870;50.950;11.762;2023-05-23T02:50:57;98170.31;;;15.18;100.00
17505;BME280;8870;50.950;11.762;2023-05-23T14:00:34;98397.16;;;13.54;100.00
17505;BME280;8870;50.950;11.762;2023-05-23T14:06:06;98397.22;;;13.46;100.00
17505;BME280;8870;50.950;11.762;2023-05-23T14:11:24;98431.56;;;13.37;100.00
17505;BME280;8870;50.950;11.762;2023-05-23T14:16:57;98423.00;;;13.25;100.00
17505;BME280;8870;50.950;11.762;2023-05-23T14:22:16;98418.31;;;13.19;100.00
17505;BME280;8870;50.950;11.762;2023-05-23T14:27:47;98424.44;;;13.13;100.00
17505;BME280;8870;50.950;11.762;2023-05-23T14:33:07;98427.84;;;13.07;100.00
17505;BME280;8870;50.950;11.762;2023-05-23T14:38:39;98447.31;;;13.02;100.00
17505;BME280;8870;50.950;11.762;2023-05-23T14:43:59;98451.25;;;12.91;100.00
17505;BME280;8870;50.950;11.762;2023-05-23T14:49:32;98455.34;;;12.79;100.00
17505;BME280;8870;50.950;11.762;2023-05-23T14:54:51;98473.97;;;12.74;100.00
17505;BME280;8870;50.950;11.762;2023-05-23T15:00:22;98461.81;;;12.70;100.00
17505;BME280;8870;50.950;11.762;2023-05-23T15:05:43;98477.53;;;12.66;100.00
17505;BME280;8870;50.950;11.762;2023-05-23T15:11:17;98480.91;;;12.60;100.00
17505;BME280;8870;50.950;11.762;2023-05-23T15:16:35;98483.81;;;12.58;100.00
17505;BME280;8870;50.950;11.762;2023-05-23T15:22:12;98495.97;;;12.54;100.00
17505;BME280;8870;50.950;11.762;2023-05-23T15:27:58;98495.97;;;12.54;100.00
17505;BME280;8870;50.950;11.762;2023-05-23T15:33:33;98491.94;;;12.42;100.00
17505;BME280;8870;50.950;11.762;2023-05-23T15:38:46;98487.22;;;12.36;100.00
17505;BME280;8870;50.950;11.762;2023-05-23T15:44:18;98494.34;;;12.28;100.00
17505;BME280;8870;50.950;11.762;2023-05-23T15:49:36;98500.25;;;12.32;100.00
17505;BME280;8870;50.950;11.762;2023-05-23T15:55:09;98491.47;;;12.22;100.00
17505;BME280;8870;50.950;11.762;2023-05-23T16:00:28;98481.19;;;12.17;100.00
17505;BME280;8870;50.950;11.762;2023-05-23T16:06:00;98505.66;;;12.07;100.00
17505;BME280;8870;50.950;11.762;2023-05-23T16:11:20;98491.31;;;11.98;100.00
17505;BME280;8870;50.950;11.762;2023-05-23T16:16:52;98522.66;;;11.91;100.00
17505;BME280;8870;50.950;11.762;2023-05-23T16:22:13;98502.22;;;11.88;100.00
17505;BME280;8870;50.950;11.762;2023-05-23T16:27:50;98504.09;;;11.80;100.00
17505;BME280;8870;50.950;11.762;2023-05-23T16:33:09;98511.50;;;11.78;100.00
17505;BME280;8870;50.950;11.762;2023-05-23T16:38:40;98521.25;;;11.70;100.00
17505;BME280;8870;50.950;11.762;2023-05-23T16:44:02;98541.34;;;11.68;100.00
17505;BME280;8870;50.950;11.762;2023-05-23T16:49:33;98538.13;;;11.56;100.00
17505;BME280;8870;50.950;11.762;2023-05-23T16:54:51;98536.75;;;11.52;100.00
17505;BME280;8870;50.950;11.762;2023-05-23T17:00:25;98547.84;;;11.40;100.00
17505;BME280;8870;50.950;11.762;2023-05-23T17:05:44;98552.41;;;11.40;100.00
17505;BME280;8870;50.950;11.762;2023-05-23T17:11:16;98546.13;;;11.31;100.00
17505;BME280;8870;50.950;11.762;2023-05-23T17:16:36;98553.19;;;11.24;100.00
17505;BME280;8870;50.950;11.762;2023-05-23T17:22:09;98549.66;;;11.23;100.00
17505;BME280;8870;50.950;11.762;2023-05-23T17:27:29;98568.81;;;11.12;100.00
17505;BME280;8870;50.950;11.762;2023-05-23T17:33:02;98546.72;;;11.08;100.00
17505;BME280;8870;50.950;11.762;2023-05-23T17:38:21;98557.50;;;11.08;100.00
17505;BME280;8870;50.950;11.762;2023-05-23T17:43:52;98566.09;;;11.04;100.00
17505;BME280;8870;50.950;11.762;2023-05-23T17:49:12;98560.84;;;11.02;100.00
17505;BME280;8870;50.950;11.762;2023-05-23T17:54:44;98553.44;;;11.04;100.00
17505;BME280;8870;50.950;11.762;2023-05-23T18:00:10;98556.44;;;11.01;100.00
17505;BME280;8870;50.950;11.762;2023-05-23T18:05:45;98571.09;;;10.99;100.00
17505;BME280;8870;50.950;11.762;2023-05-23T18:11:03;98558.31;;;11.01;100.00
17505;BME280;8870;50.950;11.762;2023-05-23T18:16:35;98565.88;;;10.97;100.00
17505;BME280;8870;50.950;11.762;2023-05-23T18:21:55;98570.59;;;10.95;100.00
17505;BME280;8870;50.950;11.762;2023-05-23T18:27:28;98576.81;;;10.95;100.00
17505;BME280;8870;50.950;11.762;2023-05-23T18:32:46;98585.06;;;10.94;100.00
17505;BME280;8870;50.950;11.762;2023-05-23T18:38:20;98592.97;;;10.95;100.00
17505;BME280;8870;50.950;11.762;2023-05-23T18:43:39;98591.47;;;10.93;100.00
17505;BME280;8870;50.950;11.762;2023-05-23T18:49:13;98594.47;;;10.90;100.00
17505;BME280;8870;50.950;11.762;2023-05-23T18:54:26;98601.53;;;10.91;100.00
17505;BME280;8870;50.950;11.762;2023-05-23T18:59:59;98610.63;;;10.90;100.00
17505;BME280;8870;50.950;11.762;2023-05-23T19:05:17;98617.56;;;10.92;100.00
17505;BME280;8870;50.950;11.762;2023-05-23T19:10:52;98633.19;;;10.89;100.00
17505;BME280;8870;50.950;11.762;2023-05-23T19:16:11;98635.22;;;10.87;100.00
17505;BME280;8870;50.950;11.762;2023-05-23T19:21:42;98639.94;;;10.85;100.00
17505;BME280;8870;50.950;11.762;2023-05-23T19:27:03;98645.47;;;10.83;100.00
17505;BME280;8870;50.950;11.762;2023-05-23T19:32:36;98640.41;;;10.80;100.00
17505;BME280;8870;50.950;11.762;2023-05-23T19:37:54;98649.63;;;10.77;100.00
17505;BME280;8870;50.950;11.762;2023-05-23T19:43:29;98654.34;;;10.75;100.00
17505;BME280;8870;50.950;11.762;2023-05-23T19:48:48;98654.34;;;10.75;100.00
17505;BME280;8870;50.950;11.762;2023-05-23T19:54:19;98656.50;;;10.72;100.00
17505;BME280;8870;50.950;11.762;2023-05-23T19:59:40;98661.75;;;10.73;100.00
17505;BME280;8870;50.950;11.762;2023-05-23T20:05:13;98654.97;;;10.69;100.00
17505;BME280;8870;50.950;11.762;2023-05-23T20:10:31;98661.34;;;10.68;100.00
17505;BME280;8870;50.950;11.762;2023-05-23T20:16:07;98661.66;;;10.65;100.00
17505;BME280;8870;50.950;11.762;2023-05-23T20:21:26;98671.06;;;10.61;100.00
17505;BME280;8870;50.950;11.762;2023-05-23T20:26:57;98674.94;;;10.58;100.00
17505;BME280;8870;50.950;11.762;2023-05-23T20:32:18;98676.75;;;10.58;100.00
17505;BME280;8870;50.950;11.762;2023-05-23T20:37:49;98694.22;;;10.54;100.00
17505;BME280;8870;50.950;11.762;2023-05-23T20:43:07;98702.31;;;10.54;100.00
17505;BME280;8870;50.950;11.762;2023-05-23T20:48:41;98705.22;;;10.42;100.00
17505;BME280;8870;50.950;11.762;2023-05-23T20:53:59;98709.94;;;10.40;100.00
17505;BME280;8870;50.950;11.762;2023-05-23T20:59:30;98697.16;;;10.42;100.00
17505;BME280;8870;50.950;11.762;2023-05-23T21:05:04;98706.56;;;10.38;100.00
17505;BME280;8870;50.950;11.762;2023-05-23T21:10:23;98713.38;;;10.32;100.00
17505;BME280;8870;50.950;11.762;2023-05-23T21:15:56;98716.13;;;10.23;100.00
17505;BME280;8870;50.950;11.762;2023-05-23T21:21:17;98725.34;;;10.20;100.00
17505;BME280;8870;50.950;11.762;2023-05-23T21:26:49;98722.72;;;10.10;100.00
17505;BME280;8870;50.950;11.762;2023-05-23T21:32:07;98727.41;;;10.08;100.00
17505;BME280;8870;50.950;11.762;2023-05-23T21:37:41;98723.66;;;9.91;100.00
17505;BME280;8870;50.950;11.762;2023-05-23T21:42:59;98723.13;;;9.87;100.00
17505;BME280;8870;50.950;11.762;2023-05-23T21:48:30;98722.63;;;9.74;100.00
17505;BME280;8870;50.950;11.762;2023-05-23T21:53:51;98721.25;;;9.70;100.00
17505;BME280;8870;50.950;11.762;2023-05-23T21:59:22;98727.34;;;9.62;100.00
17505;BME280;8870;50.950;11.762;2023-05-23T22:04:40;98734.84;;;9.59;100.00
17505;BME280;8870;50.950;11.762;2023-05-23T22:10:14;98748.91;;;9.52;100.00
17505;BME280;8870;50.950;11.762;2023-05-23T22:15:33;98742.09;;;9.48;100.00
17505;BME280;8870;50.950;11.762;2023-05-23T22:21:04;98749.78;;;9.43;100.00
17505;BME280;8870;50.950;11.762;2023-05-23T22:26:25;98752.03;;;9.38;100.00
17505;BME280;8870;50.950;11.762;2023-05-23T22:31:56;98756.59;;;9.37;100.00
17505;BME280;8870;50.950;11.762;2023-05-23T22:37:14;98743.16;;;9.37;100.00
17505;BME280;8870;50.950;11.762;2023-05-23T22:42:47;98751.34;;;9.36;100.00
17505;BME280;8870;50.950;11.762;2023-05-23T22:48:06;98751.50;;;9.34;100.00
17505;BME280;8870;50.950;11.762;2023-05-23T22:53:37;98746.28;;;9.33;100.00
17505;BME280;8870;50.950;11.762;2023-05-23T22:58:58;98757.03;;;9.33;100.00
17505;BME280;8870;50.950;11.762;2023-05-23T23:04:29;98759.84;;;9.31;100.00
17505;BME280;8870;50.950;11.762;2023-05-23T23:10:02;98758.47;;;9.27;100.00
17505;BME280;8870;50.950;11.762;2023-05-23T23:15:23;98756.88;;;9.24;100.00
17505;BME280;8870;50.950;11.762;2023-05-23T23:20:54;98751.09;;;9.19;100.00
17505;BME280;8870;50.950;11.762;2023-05-23T23:26:12;98754.78;;;9.18;100.00
17505;BME280;8870;50.950;11.762;2023-05-23T23:31:47;98742.66;;;9.04;100.00
17505;BME280;8870;50.950;11.762;2023-05-23T23:37:05;98743.75;;;9.02;100.00
17505;BME280;8870;50.950;11.762;2023-05-23T23:42:36;98751.53;;;8.95;100.00
17505;BME280;8870;50.950;11.762;2023-05-23T23:47:57;98752.97;;;8.89;100.00
17505;BME280;8870;50.950;11.762;2023-05-23T23:53:29;98740.28;;;8.82;100.00
17505;BME280;8870;50.950;11.762;2023-05-23T23:58:47;98742.66;;;8.75;100.00
